createdAt,value
2023-08-19T00:00:04.901Z,7587.00
2023-08-19T00:01:04.960Z,7615.00
2023-08-19T00:02:04.992Z,7762.00
2023-08-19T00:03:05.053Z,7796.00
2023-08-19T00:04:05.007Z,7845.00
2023-08-19T00:05:05.042Z,7957.00
2023-08-19T00:06:05.085Z,8064.00
2023-08-19T00:07:05.092Z,8081.00
2023-08-19T00:08:05.120Z,8026.00
2023-08-19T00:09:05.151Z,8027.00
2023-08-19T00:10:05.170Z,8092.00
2023-08-19T00:11:05.199Z,8123.00
2023-08-19T00:12:05.204Z,8149.00
2023-08-19T00:13:05.262Z,8192.00
2023-08-19T00:14:05.299Z,8168.00
2023-08-19T00:15:05.339Z,8399.00
2023-08-19T00:16:05.559Z,8737.00
2023-08-19T00:17:05.444Z,8946.00
2023-08-19T00:18:05.499Z,9055.00
2023-08-19T00:19:05.529Z,9123.00
2023-08-19T00:20:05.545Z,9150.00
2023-08-19T00:21:05.584Z,9155.00
2023-08-19T00:22:05.612Z,9068.00
2023-08-19T00:23:05.620Z,8963.00
2023-08-19T00:24:05.657Z,8799.00
2023-08-19T00:25:05.702Z,8682.00
2023-08-19T00:26:05.766Z,8527.00
2023-08-19T00:27:05.792Z,8307.00
2023-08-19T00:28:05.831Z,8110.00
2023-08-19T00:29:05.872Z,8038.00
2023-08-19T00:30:05.912Z,7957.00
2023-08-19T00:31:06.045Z,7888.00
2023-08-19T00:32:06.021Z,7825.00
2023-08-19T00:33:06.088Z,7752.00
2023-08-19T00:34:06.144Z,7732.00
2023-08-19T00:35:06.167Z,7604.00
2023-08-19T00:36:06.205Z,7563.00
2023-08-19T00:37:06.235Z,7449.00
2023-08-19T00:38:06.290Z,7437.00
2023-08-19T00:39:06.360Z,7340.00
2023-08-19T00:40:06.424Z,7179.00
2023-08-19T00:41:06.417Z,7086.00
2023-08-19T00:42:06.470Z,7009.00
2023-08-19T00:43:06.515Z,6950.00
2023-08-19T00:44:06.577Z,6935.00
2023-08-19T00:45:06.605Z,6919.00
2023-08-19T00:46:06.688Z,6882.00
2023-08-19T00:47:06.718Z,6999.00
2023-08-19T00:48:06.804Z,7119.00
2023-08-19T00:49:06.796Z,7165.00
2023-08-19T00:50:06.830Z,7257.00
2023-08-19T00:51:06.978Z,7329.00
2023-08-19T00:52:06.931Z,7363.00
2023-08-19T00:53:06.972Z,7407.00
2023-08-19T00:54:07.012Z,7671.00
2023-08-19T00:55:07.080Z,7816.00
2023-08-19T00:56:07.117Z,7915.00
2023-08-19T00:57:07.189Z,7928.00
2023-08-19T00:58:07.245Z,7749.00
2023-08-19T00:59:07.262Z,7748.00
2023-08-19T01:00:07.345Z,7721.00
2023-08-19T01:01:07.366Z,7916.00
2023-08-19T01:02:07.418Z,8090.00
2023-08-19T01:03:07.585Z,8293.00
2023-08-19T01:04:07.618Z,8494.00
2023-08-19T01:05:07.537Z,8670.00
2023-08-19T01:06:07.607Z,8835.00
2023-08-19T01:07:07.603Z,8856.00
2023-08-19T01:08:07.667Z,8901.00
2023-08-19T01:09:07.697Z,8899.00
2023-08-19T01:10:07.748Z,8809.00
2023-08-19T01:11:07.817Z,8693.00
2023-08-19T01:12:07.857Z,8582.00
2023-08-19T01:13:07.916Z,8488.00
2023-08-19T01:14:07.985Z,8397.00
2023-08-19T01:15:08.025Z,8222.00
2023-08-19T01:16:08.130Z,8001.00
2023-08-19T01:17:08.102Z,7777.00
2023-08-19T01:18:08.236Z,7634.00
2023-08-19T01:19:08.207Z,7627.00
2023-08-19T01:20:08.270Z,7819.00
2023-08-19T01:21:08.337Z,7925.00
2023-08-19T01:22:08.369Z,7957.00
2023-08-19T01:23:08.399Z,8012.00
2023-08-19T01:24:08.457Z,8071.00
2023-08-19T01:25:08.413Z,8175.00
2023-08-19T01:26:08.453Z,8233.00
2023-08-19T01:27:08.519Z,8262.00
2023-08-19T01:28:08.561Z,8266.00
2023-08-19T01:29:08.627Z,8107.00
2023-08-19T01:30:08.653Z,7974.00
2023-08-19T01:31:08.666Z,7872.00
2023-08-19T01:32:08.717Z,7868.00
2023-08-19T01:33:08.796Z,7932.00
2023-08-19T01:34:08.774Z,8079.00
2023-08-19T01:35:08.818Z,8188.00
2023-08-19T01:36:08.837Z,8240.00
2023-08-19T01:37:08.848Z,8142.00
2023-08-19T01:38:08.906Z,8058.00
2023-08-19T01:39:08.954Z,7903.00
2023-08-19T01:40:08.953Z,7836.00
2023-08-19T01:41:08.979Z,7986.00
2023-08-19T01:42:08.982Z,8057.00
2023-08-19T01:43:08.990Z,8258.00
2023-08-19T01:44:09.053Z,8400.00
2023-08-19T01:45:09.094Z,8521.00
2023-08-19T01:46:09.212Z,8554.00
2023-08-19T01:47:09.217Z,8570.00
2023-08-19T01:48:09.259Z,8619.00
2023-08-19T01:49:09.220Z,8686.00
2023-08-19T01:50:09.256Z,8726.00
2023-08-19T01:51:09.238Z,8736.00
2023-08-19T01:52:09.297Z,8760.00
2023-08-19T01:53:09.287Z,8822.00
2023-08-19T01:54:09.340Z,8832.00
2023-08-19T01:55:09.354Z,8834.00
2023-08-19T01:56:09.356Z,8808.00
2023-08-19T01:57:09.408Z,8811.00
2023-08-19T01:58:09.412Z,8862.00
2023-08-19T01:59:09.433Z,8903.00
2023-08-19T02:00:09.454Z,8944.00
2023-08-19T02:01:09.505Z,8942.00
2023-08-19T02:02:09.511Z,8946.00
2023-08-19T02:03:09.561Z,8919.00
2023-08-19T02:04:09.530Z,8830.00
2023-08-19T02:05:09.599Z,8777.00
2023-08-19T02:06:09.561Z,8783.00
2023-08-19T02:07:09.559Z,8814.00
2023-08-19T02:08:09.597Z,8832.00
2023-08-19T02:09:09.616Z,8844.00
2023-08-19T02:10:09.627Z,8819.00
2023-08-19T02:11:09.668Z,8762.00
2023-08-19T02:12:09.689Z,8706.00
2023-08-19T02:13:09.769Z,8661.00
2023-08-19T02:14:09.793Z,8660.00
2023-08-19T02:15:09.844Z,8769.00
2023-08-19T02:16:09.924Z,8821.00
2023-08-19T02:17:09.880Z,8725.00
2023-08-19T02:18:09.984Z,8727.00
2023-08-19T02:19:09.980Z,8678.00
2023-08-19T02:20:09.996Z,8634.00
2023-08-19T02:21:10.012Z,8477.00
2023-08-19T02:22:10.058Z,8276.00
2023-08-19T02:23:10.091Z,8239.00
2023-08-19T02:24:10.100Z,7929.00
2023-08-19T02:25:10.163Z,7720.00
2023-08-19T02:26:10.170Z,7727.00
2023-08-19T02:27:10.183Z,7651.00
2023-08-19T02:28:10.207Z,7538.00
2023-08-19T02:29:10.265Z,7269.00
2023-08-19T02:30:10.257Z,7149.00
2023-08-19T02:31:10.336Z,7150.00
2023-08-19T02:32:10.336Z,7160.00
2023-08-19T02:33:10.375Z,7003.00
2023-08-19T02:34:10.367Z,6932.00
2023-08-19T02:35:10.375Z,6997.00
2023-08-19T02:36:10.408Z,7040.00
2023-08-19T02:37:10.458Z,7088.00
2023-08-19T02:38:10.489Z,7120.00
2023-08-19T02:39:10.533Z,7203.00
2023-08-19T02:40:10.579Z,7257.00
2023-08-19T02:41:10.614Z,7172.00
2023-08-19T02:42:10.677Z,7183.00
2023-08-19T02:43:10.688Z,7178.00
2023-08-19T02:44:10.735Z,7200.00
2023-08-19T02:45:10.779Z,7227.00
2023-08-19T02:46:10.868Z,7242.00
2023-08-19T02:47:10.919Z,7248.00
2023-08-19T02:48:11.018Z,7329.00
2023-08-19T02:49:11.002Z,7363.00
2023-08-19T02:50:11.065Z,7283.00
2023-08-19T02:51:11.093Z,7317.00
2023-08-19T02:52:11.156Z,7358.00
2023-08-19T02:53:11.199Z,7420.00
2023-08-19T02:54:11.255Z,7743.00
2023-08-19T02:55:11.268Z,8000.00
2023-08-19T02:56:11.300Z,8189.00
2023-08-19T02:57:11.341Z,8341.00
2023-08-19T02:58:11.400Z,8526.00
2023-08-19T02:59:11.477Z,8649.00
2023-08-19T03:00:11.482Z,8702.00
2023-08-19T03:01:11.588Z,8781.00
2023-08-19T03:02:11.668Z,8890.00
2023-08-19T03:03:11.780Z,8946.00
2023-08-19T03:04:11.723Z,9017.00
2023-08-19T03:05:11.762Z,9004.00
2023-08-19T03:06:11.816Z,9104.00
2023-08-19T03:07:11.876Z,9161.00
2023-08-19T03:08:11.911Z,9167.00
2023-08-19T03:09:11.975Z,9097.00
2023-08-19T03:10:12.005Z,9040.00
2023-08-19T03:11:12.069Z,8992.00
2023-08-19T03:12:12.079Z,9004.00
2023-08-19T03:13:12.153Z,8996.00
2023-08-19T03:14:12.187Z,9079.00
2023-08-19T03:15:12.237Z,9123.00
2023-08-19T03:16:12.315Z,9142.00
2023-08-19T03:17:12.329Z,9035.00
2023-08-19T03:18:12.394Z,8453.00
2023-08-19T03:19:12.463Z,8063.00
2023-08-19T03:20:12.475Z,8096.00
2023-08-19T03:21:12.502Z,8058.00
2023-08-19T03:22:12.597Z,7975.00
2023-08-19T03:23:12.575Z,7722.00
2023-08-19T03:24:12.647Z,7610.00
2023-08-19T03:25:12.657Z,7573.00
2023-08-19T03:26:12.683Z,7461.00
2023-08-19T03:27:12.724Z,7526.00
2023-08-19T03:28:12.782Z,7631.00
2023-08-19T03:29:12.834Z,7657.00
2023-08-19T03:30:12.876Z,7709.00
2023-08-19T03:31:12.937Z,7872.00
2023-08-19T03:32:12.968Z,7937.00
2023-08-19T03:33:13.067Z,8026.00
2023-08-19T03:34:13.143Z,8029.00
2023-08-19T03:35:13.126Z,7745.00
2023-08-19T03:36:13.179Z,7518.00
2023-08-19T03:37:13.261Z,7360.00
2023-08-19T03:38:13.299Z,7357.00
2023-08-19T03:39:13.368Z,7421.00
2023-08-19T03:40:13.425Z,7282.00
2023-08-19T03:41:13.445Z,7014.00
2023-08-19T03:42:13.465Z,6825.00
2023-08-19T03:43:13.539Z,6794.00
2023-08-19T03:44:13.591Z,6871.00
2023-08-19T03:45:13.640Z,6977.00
2023-08-19T03:46:13.723Z,7049.00
2023-08-19T03:47:13.750Z,7122.00
2023-08-19T03:48:13.845Z,7170.00
2023-08-19T03:49:13.858Z,7220.00
2023-08-19T03:50:13.916Z,7322.00
2023-08-19T03:51:13.950Z,7373.00
2023-08-19T03:52:14.011Z,7334.00
2023-08-19T03:53:14.024Z,7457.00
2023-08-19T03:54:14.067Z,7470.00
2023-08-19T03:55:14.132Z,7511.00
2023-08-19T03:56:14.175Z,7461.00
2023-08-19T03:57:14.232Z,7409.00
2023-08-19T03:58:14.295Z,7267.00
2023-08-19T03:59:14.309Z,7123.00
2023-08-19T04:00:14.359Z,7150.00
2023-08-19T04:01:14.410Z,7088.00
2023-08-19T04:02:14.451Z,7000.00
2023-08-19T04:03:14.509Z,6965.00
2023-08-19T04:04:14.584Z,6938.00
2023-08-19T04:05:14.612Z,6865.00
2023-08-19T04:06:14.661Z,6820.00
2023-08-19T04:07:14.699Z,6843.00
2023-08-19T04:08:14.733Z,6881.00
2023-08-19T04:09:14.799Z,6906.00
2023-08-19T04:10:14.846Z,6832.00
2023-08-19T04:11:14.911Z,6744.00
2023-08-19T04:12:14.969Z,6815.00
2023-08-19T04:13:15.014Z,6873.00
2023-08-19T04:14:15.076Z,6901.00
2023-08-19T04:15:15.161Z,6881.00
2023-08-19T04:16:15.215Z,6877.00
2023-08-19T04:17:15.253Z,6773.00
2023-08-19T04:18:15.357Z,6663.00
2023-08-19T04:19:15.361Z,6662.00
2023-08-19T04:20:15.405Z,6709.00
2023-08-19T04:21:15.473Z,6742.00
2023-08-19T04:22:15.505Z,6733.00
2023-08-19T04:23:15.552Z,6739.00
2023-08-19T04:24:15.612Z,6758.00
2023-08-19T04:25:15.675Z,6770.00
2023-08-19T04:26:15.742Z,6829.00
2023-08-19T04:27:15.793Z,6907.00
2023-08-19T04:28:15.853Z,7066.00
2023-08-19T04:29:15.885Z,7077.00
2023-08-19T04:30:15.975Z,7143.00
2023-08-19T04:31:16.026Z,7287.00
2023-08-19T04:32:16.023Z,7465.00
2023-08-19T04:33:16.137Z,7718.00
2023-08-19T04:34:16.096Z,7886.00
2023-08-19T04:35:16.167Z,8058.00
2023-08-19T04:36:16.198Z,8230.00
2023-08-19T04:37:16.210Z,8369.00
2023-08-19T04:38:16.277Z,8439.00
2023-08-19T04:39:16.315Z,8472.00
2023-08-19T04:40:16.374Z,8454.00
2023-08-19T04:41:16.418Z,8439.00
2023-08-19T04:42:16.462Z,8390.00
2023-08-19T04:43:16.498Z,8349.00
2023-08-19T04:44:16.559Z,8366.00
2023-08-19T04:45:16.560Z,8314.00
2023-08-19T04:46:16.645Z,8274.00
2023-08-19T04:47:16.630Z,8192.00
2023-08-19T04:48:16.678Z,8170.00
2023-08-19T04:49:16.736Z,8225.00
2023-08-19T04:50:16.774Z,8185.00
2023-08-19T04:51:16.835Z,8169.00
2023-08-19T04:52:16.860Z,8125.00
2023-08-19T04:53:16.871Z,8090.00
2023-08-19T04:54:16.993Z,8033.00
2023-08-19T04:55:16.958Z,7977.00
2023-08-19T04:57:17.032Z,7771.00
2023-08-19T04:58:17.095Z,7682.00
2023-08-19T04:59:17.132Z,7606.00
2023-08-19T05:00:17.170Z,7526.00
2023-08-19T05:01:17.260Z,7565.00
2023-08-19T05:02:17.306Z,7640.00
2023-08-19T05:03:17.336Z,7705.00
2023-08-19T05:04:17.448Z,7756.00
2023-08-19T05:05:17.413Z,7782.00
2023-08-19T05:06:17.476Z,7802.00
2023-08-19T05:07:17.479Z,7873.00
2023-08-19T05:08:17.545Z,7940.00
2023-08-19T05:09:17.586Z,8002.00
2023-08-19T05:10:17.665Z,8006.00
2023-08-19T05:11:17.702Z,8018.00
2023-08-19T05:12:17.735Z,7933.00
2023-08-19T05:13:17.801Z,7968.00
2023-08-19T05:14:17.831Z,7917.00
2023-08-19T05:15:17.885Z,7850.00
2023-08-19T05:16:18.003Z,7615.00
2023-08-19T05:17:17.981Z,7472.00
2023-08-19T05:18:18.030Z,7416.00
2023-08-19T05:19:18.042Z,7307.00
2023-08-19T05:20:18.087Z,7201.00
2023-08-19T05:21:18.117Z,7128.00
2023-08-19T05:22:18.181Z,7101.00
2023-08-19T05:23:18.188Z,7010.00
2023-08-19T05:24:18.214Z,7080.00
2023-08-19T05:25:18.300Z,7004.00
2023-08-19T05:26:18.304Z,7027.00
2023-08-19T05:27:18.272Z,7050.00
2023-08-19T05:28:18.343Z,7112.00
2023-08-19T05:29:18.319Z,7168.00
2023-08-19T05:30:18.318Z,7162.00
2023-08-19T05:31:18.420Z,7275.00
2023-08-19T05:32:18.397Z,7382.00
2023-08-19T05:33:18.460Z,7404.00
2023-08-19T05:34:18.510Z,7455.00
2023-08-19T05:35:18.563Z,7460.00
2023-08-19T05:36:18.632Z,7515.00
2023-08-19T05:37:18.658Z,7537.00
2023-08-19T05:38:18.690Z,7578.00
2023-08-19T05:39:18.737Z,7636.00
2023-08-19T05:40:18.768Z,7686.00
2023-08-19T05:41:18.816Z,7697.00
2023-08-19T05:42:18.862Z,7661.00
2023-08-19T05:43:18.877Z,7628.00
2023-08-19T05:44:18.904Z,7502.00
2023-08-19T05:45:18.951Z,7438.00
2023-08-19T05:46:18.966Z,7288.00
2023-08-19T05:47:18.986Z,7258.00
2023-08-19T05:48:19.031Z,7245.00
2023-08-19T05:49:19.058Z,7223.00
2023-08-19T05:50:19.060Z,7158.00
2023-08-19T05:51:19.083Z,7183.00
2023-08-19T05:52:19.094Z,7131.00
2023-08-19T05:53:19.118Z,6982.00
2023-08-19T05:54:19.165Z,6815.00
2023-08-19T05:55:19.205Z,6715.00
2023-08-19T05:56:19.275Z,6695.00
2023-08-19T05:57:19.342Z,6690.00
2023-08-19T05:58:19.373Z,6727.00
2023-08-19T05:59:19.417Z,6814.00
2023-08-19T06:00:19.446Z,6840.00
2023-08-19T06:01:20.147Z,6884.00
2023-08-19T06:02:19.479Z,7020.00
2023-08-19T06:03:19.560Z,7122.00
2023-08-19T06:04:19.475Z,7151.00
2023-08-19T06:05:19.497Z,7113.00
2023-08-19T06:06:19.522Z,7098.00
2023-08-19T06:07:19.558Z,7150.00
2023-08-19T06:08:19.603Z,7293.00
2023-08-19T06:09:19.676Z,7286.00
2023-08-19T06:10:19.737Z,7255.00
2023-08-19T06:11:19.849Z,7189.00
2023-08-19T06:12:19.884Z,7173.00
2023-08-19T06:13:19.905Z,7141.00
2023-08-19T06:14:19.948Z,7208.00
2023-08-19T06:15:19.961Z,7259.00
2023-08-19T06:16:19.957Z,7138.00
2023-08-19T06:17:20.065Z,7130.00
2023-08-19T06:18:20.110Z,7176.00
2023-08-19T06:19:20.112Z,7207.00
2023-08-19T06:20:20.136Z,7122.00
2023-08-19T06:21:20.147Z,6937.00
2023-08-19T06:22:20.175Z,6854.00
2023-08-19T06:23:20.217Z,6920.00
2023-08-19T06:24:20.236Z,6775.00
2023-08-19T06:25:20.335Z,6622.00
2023-08-19T06:26:20.324Z,6576.00
2023-08-19T06:27:20.373Z,6534.00
2023-08-19T06:28:20.386Z,6474.00
2023-08-19T06:29:20.398Z,6465.00
2023-08-19T06:30:20.442Z,6415.00
2023-08-19T06:31:21.753Z,6400.00
2023-08-19T06:32:20.582Z,6210.00
2023-08-19T06:33:20.581Z,6038.00
2023-08-19T06:34:20.633Z,5800.00
2023-08-19T06:35:20.675Z,5478.00
2023-08-19T06:36:20.714Z,5261.00
2023-08-19T06:37:20.753Z,5004.00
2023-08-19T06:38:20.773Z,4878.00
2023-08-19T06:39:20.807Z,4641.00
2023-08-19T06:40:20.868Z,4463.00
2023-08-19T06:41:20.865Z,4319.00
2023-08-19T06:42:20.875Z,4315.00
2023-08-19T06:43:20.901Z,4216.00
2023-08-19T06:44:20.927Z,4095.00
2023-08-19T06:45:20.939Z,4028.00
2023-08-19T06:46:20.972Z,3939.00
2023-08-19T06:47:20.949Z,3944.00
2023-08-19T06:48:20.991Z,3811.00
2023-08-19T06:49:20.996Z,3721.00
2023-08-19T06:50:21.021Z,3695.00
2023-08-19T06:51:21.069Z,3711.00
2023-08-19T06:52:21.093Z,3714.00
2023-08-19T06:53:21.111Z,3725.00
2023-08-19T06:54:21.126Z,3695.00
2023-08-19T06:55:21.145Z,3553.00
2023-08-19T06:56:21.173Z,3444.00
2023-08-19T06:57:21.202Z,3484.00
2023-08-19T06:58:21.255Z,3530.00
2023-08-19T06:59:21.285Z,3554.00
2023-08-19T07:00:21.287Z,3669.00
2023-08-19T07:01:21.367Z,3672.00
2023-08-19T07:02:21.392Z,3547.00
2023-08-19T07:03:21.411Z,3518.00
2023-08-19T07:04:21.369Z,3470.00
2023-08-19T07:05:21.379Z,3506.00
2023-08-19T07:06:21.392Z,3497.00
2023-08-19T07:07:21.416Z,3416.00
2023-08-19T07:08:21.409Z,3336.00
2023-08-19T07:09:21.453Z,3358.00
2023-08-19T07:10:21.468Z,3316.00
2023-08-19T07:11:21.501Z,3227.00
2023-08-19T07:12:21.500Z,3280.00
2023-08-19T07:13:21.553Z,3322.00
2023-08-19T07:14:21.574Z,3317.00
2023-08-19T07:15:21.649Z,3252.00
2023-08-19T07:16:21.725Z,3246.00
2023-08-19T07:17:21.758Z,3090.00
2023-08-19T07:18:21.914Z,3126.00
2023-08-19T07:19:21.849Z,3056.00
2023-08-19T07:20:21.897Z,3105.00
2023-08-19T07:21:21.894Z,3230.00
2023-08-19T07:22:21.930Z,3213.00
2023-08-19T07:23:21.974Z,3094.00
2023-08-19T07:24:21.999Z,2973.00
2023-08-19T07:25:22.052Z,2998.00
2023-08-19T07:26:22.058Z,2965.00
2023-08-19T07:27:22.077Z,3042.00
2023-08-19T07:28:22.106Z,3147.00
2023-08-19T07:29:22.110Z,3150.00
2023-08-19T07:30:22.138Z,3059.00
2023-08-19T07:31:22.123Z,3154.00
2023-08-19T07:32:22.149Z,3221.00
2023-08-19T07:33:22.157Z,3299.00
2023-08-19T07:34:22.130Z,3295.00
2023-08-19T07:35:22.162Z,3278.00
2023-08-19T07:36:22.191Z,3093.00
2023-08-19T07:37:22.217Z,3075.00
2023-08-19T07:38:22.268Z,3223.00
2023-08-19T07:39:22.306Z,3094.00
2023-08-19T07:40:22.361Z,3145.00
2023-08-19T07:41:22.413Z,3032.00
2023-08-19T07:42:22.458Z,2866.00
2023-08-19T07:43:22.515Z,2729.00
2023-08-19T07:44:22.546Z,2272.00
2023-08-19T07:45:22.606Z,2142.00
2023-08-19T07:46:22.646Z,1951.00
2023-08-19T07:47:22.660Z,1745.00
2023-08-19T07:48:22.758Z,1641.00
2023-08-19T07:49:22.726Z,1716.00
2023-08-19T07:50:22.748Z,1712.00
2023-08-19T07:51:22.778Z,1564.00
2023-08-19T07:52:22.794Z,1726.00
2023-08-19T07:53:22.826Z,1870.00
2023-08-19T07:54:22.867Z,2033.00
2023-08-19T07:55:22.898Z,2061.00
2023-08-19T07:56:22.909Z,2005.00
2023-08-19T07:57:22.929Z,2081.00
2023-08-19T07:58:22.974Z,2206.00
2023-08-19T07:59:23.009Z,2045.00
2023-08-19T08:00:23.021Z,1861.00
2023-08-19T08:01:23.044Z,1714.00
2023-08-19T08:02:23.806Z,1622.00
2023-08-19T08:03:23.137Z,1706.00
2023-08-19T08:04:23.102Z,1505.00
2023-08-19T08:05:23.283Z,1321.00
2023-08-19T08:06:23.095Z,1254.00
2023-08-19T08:07:23.106Z,1109.00
2023-08-19T08:08:23.148Z,977.00
2023-08-19T08:09:23.198Z,850.00
2023-08-19T08:10:23.256Z,847.00
2023-08-19T08:11:23.314Z,723.00
2023-08-19T08:12:23.378Z,650.00
2023-08-19T08:13:23.412Z,647.00
2023-08-19T08:14:23.491Z,725.00
2023-08-19T08:15:23.521Z,865.00
2023-08-19T08:16:23.625Z,913.00
2023-08-19T08:17:23.616Z,928.00
2023-08-19T08:18:23.694Z,1045.00
2023-08-19T08:19:23.718Z,998.00
2023-08-19T08:20:23.748Z,944.00
2023-08-19T08:21:23.794Z,950.00
2023-08-19T08:22:23.815Z,995.00
2023-08-19T08:23:23.853Z,877.00
2023-08-19T08:24:23.888Z,766.00
2023-08-19T08:25:23.927Z,753.00
2023-08-19T08:26:23.957Z,805.00
2023-08-19T08:27:23.994Z,667.00
2023-08-19T08:28:24.019Z,612.00
2023-08-19T08:29:24.044Z,605.00
2023-08-19T08:30:24.089Z,525.00
2023-08-19T08:31:24.130Z,495.00
2023-08-19T08:32:24.245Z,517.00
2023-08-19T08:33:24.159Z,487.00
2023-08-19T08:34:24.196Z,508.00
2023-08-19T08:35:24.193Z,532.00
2023-08-19T08:36:24.235Z,543.00
2023-08-19T08:37:24.233Z,457.00
2023-08-19T08:38:24.257Z,454.00
2023-08-19T08:39:24.267Z,500.00
2023-08-19T08:40:24.795Z,548.00
2023-08-19T08:41:24.311Z,573.00
2023-08-19T08:42:24.311Z,563.00
2023-08-19T08:43:24.318Z,533.00
2023-08-19T08:44:24.348Z,433.00
2023-08-19T08:45:24.404Z,438.00
2023-08-19T08:46:24.384Z,497.00
2023-08-19T08:47:24.473Z,533.00
2023-08-19T08:48:24.409Z,638.00
2023-08-19T08:49:24.483Z,639.00
2023-08-19T08:50:24.420Z,494.00
2023-08-19T08:51:24.458Z,457.00
2023-08-19T08:52:24.466Z,424.00
2023-08-19T08:53:24.465Z,476.00
2023-08-19T08:54:24.516Z,490.00
2023-08-19T08:55:24.486Z,495.00
2023-08-19T08:56:24.496Z,555.00
2023-08-19T08:57:24.537Z,790.00
2023-08-19T08:58:24.554Z,728.00
2023-08-19T08:59:24.560Z,617.00
2023-08-19T09:00:24.569Z,545.00
2023-08-19T09:01:24.702Z,524.00
2023-08-19T09:02:24.620Z,495.00
2023-08-19T09:03:24.677Z,507.00
2023-08-19T09:04:24.782Z,543.00
2023-08-19T09:05:24.820Z,622.00
2023-08-19T09:06:27.374Z,470.00
2023-08-19T09:07:24.808Z,498.00
2023-08-19T09:08:24.802Z,432.00
2023-08-19T09:09:24.787Z,532.00
2023-08-19T09:10:24.795Z,515.00
2023-08-19T09:11:24.788Z,400.00
2023-08-19T09:12:24.772Z,429.00
2023-08-19T09:13:24.772Z,577.00
2023-08-19T09:14:24.764Z,700.00
2023-08-19T09:15:24.773Z,519.00
2023-08-19T09:16:24.761Z,457.00
2023-08-19T09:17:24.746Z,509.00
2023-08-19T09:18:24.744Z,558.00
2023-08-19T09:19:24.743Z,595.00
2023-08-19T09:20:24.731Z,641.00
2023-08-19T09:21:24.728Z,571.00
2023-08-19T09:22:24.723Z,612.00
2023-08-19T09:23:24.711Z,523.00
2023-08-19T09:24:24.709Z,491.00
2023-08-19T09:25:24.712Z,594.00
2023-08-19T09:26:24.696Z,542.00
2023-08-19T09:27:24.688Z,553.00
2023-08-19T09:28:24.677Z,570.00
2023-08-19T09:29:24.676Z,479.00
2023-08-19T09:30:24.663Z,481.00
2023-08-19T09:31:24.694Z,503.00
2023-08-19T09:32:24.648Z,555.00
2023-08-19T09:33:24.641Z,748.00
2023-08-19T09:34:24.633Z,544.00
2023-08-19T09:35:24.629Z,540.00
2023-08-19T09:36:24.636Z,582.00
2023-08-19T09:37:24.621Z,521.00
2023-08-19T09:38:24.622Z,557.00
2023-08-19T09:39:24.606Z,478.00
2023-08-19T09:40:24.600Z,459.00
2023-08-19T09:41:24.625Z,404.00
2023-08-19T09:42:24.586Z,483.00
2023-08-19T09:43:24.584Z,483.00
2023-08-19T09:44:24.589Z,497.00
2023-08-19T09:45:24.679Z,500.00
2023-08-19T09:46:24.586Z,491.00
2023-08-19T09:47:24.546Z,500.00
2023-08-19T09:48:24.547Z,466.00
2023-08-19T09:49:24.548Z,560.00
2023-08-19T09:50:24.554Z,527.00
2023-08-19T09:51:24.598Z,548.00
2023-08-19T09:52:24.516Z,558.00
2023-08-19T09:53:24.552Z,503.00
2023-08-19T09:54:24.507Z,516.00
2023-08-19T09:55:24.495Z,549.00
2023-08-19T09:56:24.496Z,555.00
2023-08-19T09:57:24.493Z,600.00
2023-08-19T09:58:24.477Z,757.00
2023-08-19T09:59:24.472Z,636.00
2023-08-19T10:00:24.498Z,1073.00
2023-08-19T10:01:24.540Z,1225.00
2023-08-19T10:02:24.447Z,648.00
2023-08-19T10:03:24.486Z,558.00
2023-08-19T10:04:24.476Z,504.00
2023-08-19T10:05:24.470Z,532.00
2023-08-19T10:06:24.447Z,555.00
2023-08-19T10:07:24.428Z,497.00
2023-08-19T10:08:24.452Z,500.00
2023-08-19T10:09:24.411Z,530.00
2023-08-19T10:10:24.409Z,513.00
2023-08-19T10:11:24.403Z,513.00
2023-08-19T10:12:24.390Z,616.00
2023-08-19T10:13:24.384Z,583.00
2023-08-19T10:14:24.404Z,485.00
2023-08-19T10:15:24.382Z,563.00
2023-08-19T10:16:24.411Z,555.00
2023-08-19T10:17:24.441Z,542.00
2023-08-19T10:18:24.361Z,608.00
2023-08-19T10:19:24.416Z,808.00
2023-08-19T10:20:24.492Z,807.00
2023-08-19T10:21:24.543Z,536.00
2023-08-19T10:22:24.589Z,431.00
2023-08-19T10:23:24.660Z,447.00
2023-08-19T10:24:24.644Z,504.00
2023-08-19T10:25:24.724Z,495.00
2023-08-19T10:26:24.744Z,468.00
2023-08-19T10:27:24.801Z,501.00
2023-08-19T10:28:24.832Z,542.00
2023-08-19T10:29:24.859Z,527.00
2023-08-19T10:30:24.901Z,440.00
2023-08-19T10:31:24.934Z,400.00
2023-08-19T10:32:24.959Z,400.00
2023-08-19T10:33:25.028Z,400.00
2023-08-19T10:34:25.058Z,413.00
2023-08-19T10:35:25.101Z,515.00
2023-08-19T10:36:25.134Z,579.00
2023-08-19T10:37:25.158Z,771.00
2023-08-19T10:38:25.176Z,763.00
2023-08-19T10:39:25.199Z,875.00
2023-08-19T10:40:25.217Z,812.00
2023-08-19T10:41:25.220Z,690.00
2023-08-19T10:42:25.224Z,639.00
2023-08-19T10:43:25.218Z,617.00
2023-08-19T10:44:25.230Z,732.00
2023-08-19T10:45:25.229Z,970.00
2023-08-19T10:46:25.293Z,1353.00
2023-08-19T10:47:25.354Z,1485.00
2023-08-19T10:48:25.301Z,1496.00
2023-08-19T10:49:25.340Z,1463.00
2023-08-19T10:50:25.371Z,1461.00
2023-08-19T10:51:25.447Z,1719.00
2023-08-19T10:52:25.411Z,2040.00
2023-08-19T10:53:25.406Z,2111.00
2023-08-19T10:54:25.427Z,2308.00
2023-08-19T10:55:25.454Z,2290.00
2023-08-19T10:56:25.510Z,2033.00
2023-08-19T10:57:25.623Z,2006.00
2023-08-19T10:58:25.562Z,1608.00
2023-08-19T10:59:25.594Z,1587.00
2023-08-19T11:00:25.602Z,1864.00
2023-08-19T11:01:25.669Z,2026.00
2023-08-19T11:02:25.664Z,2203.00
2023-08-19T11:03:25.670Z,1729.00
2023-08-19T11:04:25.740Z,1622.00
2023-08-19T11:05:25.736Z,1863.00
2023-08-19T11:06:25.777Z,2065.00
2023-08-19T11:07:25.825Z,2156.00
2023-08-19T11:08:25.885Z,1805.00
2023-08-19T11:09:25.905Z,1595.00
2023-08-19T11:10:25.918Z,1634.00
2023-08-19T11:11:25.940Z,1831.00
2023-08-19T11:12:26.400Z,1755.00
2023-08-19T11:13:26.038Z,1729.00
2023-08-19T11:14:26.094Z,1535.00
2023-08-19T11:15:26.134Z,1355.00
2023-08-19T11:16:26.209Z,1384.00
2023-08-19T11:17:26.247Z,1536.00
2023-08-19T11:18:26.321Z,1614.00
2023-08-19T11:19:26.310Z,1855.00
2023-08-19T11:20:26.356Z,1678.00
2023-08-19T11:21:26.346Z,1598.00
2023-08-19T11:22:26.409Z,1771.00
2023-08-19T11:23:26.387Z,1876.00
2023-08-19T11:24:26.419Z,2123.00
2023-08-19T11:25:26.428Z,2683.00
2023-08-19T11:26:26.484Z,2907.00
2023-08-19T11:27:26.588Z,2805.00
2023-08-19T11:28:26.639Z,2768.00
2023-08-19T11:29:26.642Z,2432.00
2023-08-19T11:30:26.632Z,2522.00
2023-08-19T11:31:26.722Z,2342.00
2023-08-19T11:32:26.685Z,2257.00
2023-08-19T11:33:26.721Z,2151.00
2023-08-19T11:34:26.711Z,2313.00
2023-08-19T11:35:26.777Z,2086.00
2023-08-19T11:36:26.826Z,2205.00
2023-08-19T11:37:26.879Z,2108.00
2023-08-19T11:38:26.935Z,2017.00
2023-08-19T11:39:26.990Z,1992.00
2023-08-19T11:40:29.906Z,2051.00
2023-08-19T11:41:27.030Z,2075.00
2023-08-19T11:42:27.028Z,2046.00
2023-08-19T11:43:27.028Z,2295.00
2023-08-19T11:44:27.023Z,2123.00
2023-08-19T11:45:27.003Z,2184.00
2023-08-19T11:46:26.999Z,2195.00
2023-08-19T11:47:27.054Z,2646.00
2023-08-19T11:48:27.008Z,2765.00
2023-08-19T11:49:26.973Z,2630.00
2023-08-19T11:50:26.972Z,2407.00
2023-08-19T11:51:26.975Z,2348.00
2023-08-19T11:52:26.961Z,1955.00
2023-08-19T11:53:26.975Z,1970.00
2023-08-19T11:54:26.945Z,2107.00
2023-08-19T11:55:26.941Z,2183.00
2023-08-19T11:56:26.956Z,2061.00
2023-08-19T11:57:26.946Z,2136.00
2023-08-19T11:58:26.933Z,2164.00
2023-08-19T11:59:26.919Z,1965.00
2023-08-19T12:00:26.923Z,1810.00
2023-08-19T12:01:26.989Z,1873.00
2023-08-19T12:02:26.907Z,2052.00
2023-08-19T12:03:27.000Z,2174.00
2023-08-19T12:04:26.894Z,1891.00
2023-08-19T12:05:26.883Z,1642.00
2023-08-19T12:06:26.870Z,1498.00
2023-08-19T12:07:26.879Z,1330.00
2023-08-19T12:08:26.873Z,1454.00
2023-08-19T12:09:26.861Z,1528.00
2023-08-19T12:10:26.849Z,1474.00
2023-08-19T12:11:26.936Z,1364.00